Maples, Indiana
Current Conditions -  °F | °C
As of 10:54 PM on Tuesday 21 Oct 2014 (Local Time) from KFWA Reporting Station
Overcast Overcast  
Wind Chill: 42°   Ceiling: 4300
Heat Index: 45°   Visibility: 10mi
Dew Point: 37°   Wind: 6mph
Humidity: 74%   Direction: 10°N
Pressure: 30.23"   Gusts: NA
Location:  41.0028°N, 85.0396°W
Report Text: KFWA 220254Z 01005KT 10SM OVC043 07/03 A3023 RMK AO2 SLP241 T00720028 51017
Loading
Personal Weather Stations






























Interactive Weather Map
Tropical Storm Tracking
New forecast layout! Learn more

10-Day Weather Forecast

Advertisements
Track Severe Weather on mobile